Aérodrome :
LOGIN :

S'inscrire | Disclaimer

   EN    FR    IT 

 










Légende :    VFR   VFR Marginal   IFR   IFR Intensif   IFR Très Intensif
Visi : 
Plafond : 
>= 8 km
>= 3000ft
5 à 8 km
1000 à 3000 ft
1500m à 5 km
500 à 1000 ft
800 à 1500m
200 à 500 ft
< 800m
< 200 ft
Symboles :   Orages  Brouillard  Fortes neiges  Fortes précipitations  Vent > 20 kt
SIGMETs :   Divers  Orages  Givrage  Turbulence  Onde Orograph.  Cendres Volcan.







- Altitude de l'aérodrome : 24 ft
- Code IATA : SGD


EKSB - Sonderborg

DERNIER METAR :
  • 140420Z AUTO 27010KT 230V290 9999NDV -SHRA OVC029/// 03/02 Q0977

METARs EXPIRÉS :
  • 140350Z AUTO 23006KT 190V270 9999NDV -SHRA OVC007/// 02/01 Q0977
  • 140320Z AUTO 17007KT 9999NDV -SN OVC006/// 02/01 Q0977
  • 140250Z AUTO 16008KT 6000NDV RASN OVC005/// 01/01 Q0977
  • 140220Z AUTO 16010KT 9999NDV RA OVC006/// 02/01 Q0978
  • 140150Z AUTO 15010KT 9999NDV -RA OVC007/// 02/02 Q0978 RERA
  • 140120Z AUTO 16012KT 130V200 9999NDV RA OVC008/// 03/02 Q0979

Prévision TAF périmée.
Pas de NOTAMs connus pour ce terrain.



MET'MAP, la Météo Aéronautique d'un coup d'oeil ! - Copyright ORBIFLY Décembre 2007 - Disclaimer

ORBIFLY MET'MAP TEAM :

Programmation & Développement : Alexandra Zaïnal
Conception & Développement : Baudouin d'Aumeries
Co-Programmation & Développement : Marc-Olivier Méhu
Soutien technique & logistique : Manuel Goepfert

Contact : metmap@orbifly.com




SOURCES & CREDITS :

   NOAA